createdAt,value
2018-03-19T00:00:07.433Z,18.49
2018-03-19T00:02:33.644Z,18.52
2018-03-19T00:04:59.794Z,18.53
2018-03-19T00:07:26.890Z,18.53
2018-03-19T00:09:53.108Z,18.52
2018-03-19T00:12:19.263Z,18.50
2018-03-19T00:14:45.457Z,18.48
2018-03-19T00:17:11.733Z,18.47
2018-03-19T00:19:37.888Z,18.47
2018-03-19T00:22:04.090Z,18.48
2018-03-19T00:24:30.241Z,18.49
2018-03-19T00:26:56.441Z,18.51
2018-03-19T00:29:22.598Z,18.50
2018-03-19T00:31:48.776Z,18.49
2018-03-19T00:34:14.988Z,18.48
2018-03-19T00:36:41.525Z,18.49
2018-03-19T00:39:07.771Z,18.50
2018-03-19T00:41:34.186Z,18.46
2018-03-19T00:44:00.347Z,18.44
2018-03-19T00:46:26.849Z,18.45
2018-03-19T00:48:52.988Z,18.45
2018-03-19T00:51:19.141Z,18.47
2018-03-19T00:53:45.317Z,18.46
2018-03-19T00:56:11.471Z,18.45
2018-03-19T00:58:37.649Z,18.44
2018-03-19T01:01:03.836Z,18.44
2018-03-19T01:03:30.350Z,18.43
2018-03-19T01:05:56.541Z,18.42
2018-03-19T01:08:22.717Z,18.43
2018-03-19T01:10:48.910Z,18.42
2018-03-19T01:13:15.124Z,18.44
2018-03-19T01:15:41.341Z,18.44
2018-03-19T01:18:07.817Z,18.43
2018-03-19T01:20:34.017Z,18.42
2018-03-19T01:23:00.167Z,18.43
2018-03-19T01:25:26.367Z,18.43
2018-03-19T01:27:52.557Z,18.43
2018-03-19T01:30:18.777Z,18.43
2018-03-19T01:32:44.952Z,18.42
2018-03-19T01:35:11.180Z,18.42
2018-03-19T01:37:37.437Z,18.41
2018-03-19T01:40:03.597Z,18.43
2018-03-19T01:42:29.796Z,18.41
2018-03-19T01:44:56.219Z,18.41
2018-03-19T01:47:22.402Z,18.40
2018-03-19T01:49:48.530Z,18.42
2018-03-19T01:52:14.830Z,18.42
2018-03-19T01:54:40.981Z,18.43
2018-03-19T01:57:07.157Z,18.41
2018-03-19T01:59:33.699Z,18.41
2018-03-19T02:01:59.904Z,18.41
2018-03-19T02:04:26.080Z,18.38
2018-03-19T02:06:52.474Z,18.36
2018-03-19T02:09:18.652Z,18.38
2018-03-19T02:11:44.823Z,18.39
2018-03-19T02:14:11.003Z,18.39
2018-03-19T02:16:37.143Z,18.39
2018-03-19T02:19:03.323Z,18.37
2018-03-19T02:21:29.459Z,18.35
2018-03-19T02:23:55.650Z,18.36
2018-03-19T02:26:21.833Z,18.36
2018-03-19T02:28:48.014Z,18.36
2018-03-19T02:31:14.196Z,18.36
2018-03-19T02:33:40.437Z,18.39
2018-03-19T02:36:06.645Z,18.35
2018-03-19T02:38:32.824Z,18.33
2018-03-19T02:40:59.040Z,18.33
2018-03-19T02:43:25.262Z,18.34
2018-03-19T02:45:51.420Z,18.35
2018-03-19T02:48:17.607Z,18.34
2018-03-19T02:50:43.773Z,18.34
2018-03-19T02:53:09.970Z,18.34
2018-03-19T02:55:36.136Z,18.31
2018-03-19T02:58:02.345Z,18.31
2018-03-19T03:00:28.535Z,18.32
2018-03-19T03:02:54.730Z,18.34
2018-03-19T03:05:20.932Z,18.33
2018-03-19T03:07:47.120Z,18.34
2018-03-19T03:10:13.350Z,18.33
2018-03-19T03:12:39.524Z,18.30
2018-03-19T03:15:06.052Z,18.30
2018-03-19T03:17:32.223Z,18.30
2018-03-19T03:19:58.618Z,18.29
2018-03-19T03:22:24.861Z,18.28
2018-03-19T03:24:51.040Z,18.26
2018-03-19T03:27:17.212Z,18.28
2018-03-19T03:29:43.420Z,18.28
2018-03-19T03:32:09.585Z,18.25
2018-03-19T03:34:35.776Z,18.26
2018-03-19T03:37:01.964Z,18.28
2018-03-19T03:39:28.141Z,18.27
2018-03-19T03:41:54.333Z,18.24
2018-03-19T03:44:20.790Z,18.24
2018-03-19T03:46:46.951Z,18.25
2018-03-19T03:49:13.138Z,18.25
2018-03-19T03:51:39.295Z,18.26
2018-03-19T03:54:05.808Z,18.25
2018-03-19T03:56:31.976Z,18.24
2018-03-19T03:58:58.144Z,18.23
2018-03-19T04:01:24.343Z,18.24
2018-03-19T04:03:50.508Z,18.25
2018-03-19T04:06:17.044Z,18.24
2018-03-19T04:08:43.194Z,18.24
2018-03-19T04:11:09.707Z,18.25
2018-03-19T04:13:36.142Z,18.24
2018-03-19T04:16:02.305Z,18.24
2018-03-19T04:18:28.466Z,18.28
2018-03-19T04:20:54.632Z,18.25
2018-03-19T04:23:20.852Z,18.24
2018-03-19T04:25:47.020Z,18.25
2018-03-19T04:28:13.224Z,18.23
2018-03-19T04:30:39.376Z,18.22
2018-03-19T04:33:05.861Z,18.23
2018-03-19T04:35:32.016Z,18.22
2018-03-19T04:37:58.277Z,18.20
2018-03-19T04:40:24.524Z,18.20
2018-03-19T04:42:50.985Z,18.21
2018-03-19T04:45:17.188Z,18.20
2018-03-19T04:47:43.342Z,18.19
2018-03-19T04:50:09.540Z,18.16
2018-03-19T04:52:35.684Z,18.14
2018-03-19T04:55:01.892Z,18.14
2018-03-19T04:57:28.196Z,18.13
2018-03-19T04:59:54.686Z,18.12
2018-03-19T05:02:20.864Z,18.11
2018-03-19T05:04:47.340Z,18.11
2018-03-19T05:07:13.516Z,18.11
2018-03-19T05:09:39.771Z,18.08
2018-03-19T05:12:05.935Z,18.10
2018-03-19T05:14:32.361Z,18.10
2018-03-19T05:16:58.599Z,18.13
2018-03-19T05:19:24.769Z,18.16
2018-03-19T05:21:50.984Z,18.18
2018-03-19T05:24:17.146Z,18.18
2018-03-19T05:26:43.709Z,18.19
2018-03-19T05:29:09.891Z,18.22
2018-03-19T05:31:36.064Z,18.22
2018-03-19T05:34:02.259Z,18.22
2018-03-19T05:36:28.724Z,18.22
2018-03-19T05:38:55.257Z,18.23
2018-03-19T05:41:21.445Z,18.24
2018-03-19T05:43:47.609Z,18.24
2018-03-19T05:46:14.043Z,18.23
2018-03-19T05:48:40.220Z,18.25
2018-03-19T05:51:06.413Z,18.26
2018-03-19T05:53:32.632Z,18.24
2018-03-19T05:55:58.802Z,18.26
2018-03-19T05:58:24.948Z,18.26
2018-03-19T06:00:51.150Z,18.26
2018-03-19T06:03:17.638Z,18.25
2018-03-19T06:05:44.172Z,18.25
2018-03-19T06:08:10.325Z,18.24
2018-03-19T06:10:36.492Z,18.25
2018-03-19T06:13:02.686Z,18.23
2018-03-19T06:15:28.889Z,18.25
2018-03-19T06:17:55.048Z,18.26
2018-03-19T06:20:21.200Z,18.24
2018-03-19T06:22:47.417Z,18.23
2018-03-19T06:25:13.601Z,18.24
2018-03-19T06:27:40.128Z,18.26
2018-03-19T06:30:06.291Z,18.29
2018-03-19T06:32:32.497Z,18.30
2018-03-19T06:34:58.908Z,18.30
2018-03-19T06:37:25.095Z,18.32
2018-03-19T06:39:51.349Z,18.34
2018-03-19T06:42:17.905Z,18.35
2018-03-19T06:44:44.094Z,18.34
2018-03-19T06:47:10.247Z,18.36
2018-03-19T06:49:36.435Z,18.40
2018-03-19T06:52:02.613Z,18.42
2018-03-19T06:54:29.043Z,18.44
2018-03-19T06:56:55.582Z,18.44
2018-03-19T06:59:21.840Z,18.43
2018-03-19T07:01:48.108Z,18.45
2018-03-19T07:04:14.289Z,18.46
2018-03-19T07:06:40.471Z,18.48
2018-03-19T07:09:07.027Z,18.47
2018-03-19T07:11:33.200Z,18.49
2018-03-19T07:13:59.415Z,18.50
2018-03-19T07:16:25.612Z,18.50
2018-03-19T07:18:51.832Z,18.47
2018-03-19T07:21:18.113Z,18.44
2018-03-19T07:23:44.315Z,18.45
2018-03-19T07:26:10.546Z,18.44
2018-03-19T07:28:36.783Z,18.42
2018-03-19T07:31:02.949Z,18.44
2018-03-19T07:33:29.522Z,18.46
2018-03-19T07:35:55.753Z,18.47
2018-03-19T07:38:21.943Z,18.50
2018-03-19T07:40:48.512Z,18.54
2018-03-19T07:43:14.728Z,18.58
2018-03-19T07:45:40.908Z,18.61
2018-03-19T07:48:07.107Z,18.67
2018-03-19T07:50:33.286Z,18.71
2018-03-19T07:52:59.473Z,18.72
2018-03-19T07:55:25.972Z,18.74
2018-03-19T07:57:52.238Z,18.77
2018-03-19T08:00:18.405Z,18.80
2018-03-19T08:02:44.595Z,18.81
2018-03-19T08:05:10.804Z,18.83
2018-03-19T08:07:37.055Z,18.83
2018-03-19T08:10:03.204Z,18.85
2018-03-19T08:12:29.378Z,18.81
2018-03-19T08:14:55.547Z,18.83
2018-03-19T08:17:21.745Z,18.82
2018-03-19T08:19:48.042Z,18.78
2018-03-19T08:22:14.257Z,18.78
2018-03-19T08:24:40.430Z,18.76
2018-03-19T08:27:06.768Z,18.79
2018-03-19T08:29:32.935Z,18.73
2018-03-19T08:31:59.186Z,18.75
2018-03-19T08:34:25.625Z,18.78
2018-03-19T08:36:51.845Z,18.78
2018-03-19T08:39:18.057Z,18.85
2018-03-19T08:41:44.275Z,18.90
2018-03-19T08:44:10.550Z,18.93
2018-03-19T08:46:36.738Z,18.97
2018-03-19T08:49:02.975Z,18.98
2018-03-19T08:51:29.173Z,19.02
2018-03-19T08:53:55.342Z,19.01
2018-03-19T08:56:21.526Z,19.02
2018-03-19T08:58:48.009Z,19.04
2018-03-19T09:01:14.237Z,19.08
2018-03-19T09:03:40.448Z,19.09
2018-03-19T09:06:07.007Z,19.11
2018-03-19T09:08:33.160Z,19.15
2018-03-19T09:10:59.662Z,19.17
2018-03-19T09:13:26.094Z,19.19
2018-03-19T09:15:52.579Z,19.21
2018-03-19T09:18:18.771Z,19.20
2018-03-19T09:20:44.948Z,19.20
2018-03-19T09:23:11.204Z,19.21
2018-03-19T09:25:37.403Z,19.20
2018-03-19T09:28:03.542Z,19.26
2018-03-19T09:30:29.747Z,19.26
2018-03-19T09:32:56.234Z,19.26
2018-03-19T09:35:22.414Z,19.26
2018-03-19T09:37:48.633Z,19.26
2018-03-19T09:40:15.122Z,19.27
2018-03-19T09:42:41.287Z,19.30
2018-03-19T09:45:07.781Z,19.32
2018-03-19T09:47:34.213Z,19.30
2018-03-19T09:50:00.424Z,19.35
2018-03-19T09:52:26.661Z,19.39
2018-03-19T09:54:52.844Z,19.37
2018-03-19T09:57:19.070Z,19.39
2018-03-19T09:59:45.241Z,19.41
2018-03-19T10:02:11.420Z,19.42
2018-03-19T10:04:37.633Z,19.44
2018-03-19T10:07:03.861Z,19.42
2018-03-19T10:09:30.052Z,19.43
2018-03-19T10:11:56.232Z,19.43
2018-03-19T10:14:22.441Z,19.44
2018-03-19T10:16:48.950Z,19.42
2018-03-19T10:19:15.160Z,19.41
2018-03-19T10:21:41.382Z,19.43
2018-03-19T10:24:07.592Z,19.45
2018-03-19T10:26:33.745Z,19.45
2018-03-19T10:29:00.004Z,19.45
2018-03-19T10:31:26.526Z,19.47
2018-03-19T10:33:52.718Z,19.47
2018-03-19T10:36:18.977Z,19.47
2018-03-19T10:38:45.165Z,19.50
2018-03-19T10:41:11.844Z,19.52
2018-03-19T10:43:38.008Z,19.52
2018-03-19T10:46:04.244Z,19.54
2018-03-19T10:48:30.466Z,19.54
2018-03-19T10:50:56.961Z,19.55
2018-03-19T10:53:23.167Z,19.57
2018-03-19T10:55:49.730Z,19.59
2018-03-19T10:58:15.954Z,19.58
2018-03-19T11:00:42.485Z,19.60
2018-03-19T11:03:08.692Z,19.60
2018-03-19T11:05:40.868Z,19.64
2018-03-19T11:08:08.849Z,19.64
2018-03-19T11:10:35.051Z,19.68
2018-03-19T11:13:01.262Z,19.72
2018-03-19T11:15:27.847Z,19.75
2018-03-19T11:17:54.125Z,19.75
2018-03-19T11:20:20.312Z,19.77
2018-03-19T11:22:46.568Z,19.79
2018-03-19T11:25:12.745Z,19.82
2018-03-19T11:27:39.189Z,19.83
2018-03-19T11:30:05.393Z,19.86
2018-03-19T11:32:31.849Z,19.88
2018-03-19T11:34:58.073Z,19.90
2018-03-19T11:37:24.250Z,19.93
2018-03-19T11:39:50.467Z,19.94
2018-03-19T11:42:16.777Z,19.98
2018-03-19T11:44:43.029Z,20.04
2018-03-19T11:47:09.243Z,20.06
2018-03-19T11:49:35.757Z,20.07
2018-03-19T11:52:01.963Z,20.09
2018-03-19T11:54:28.135Z,20.14
2018-03-19T11:56:54.356Z,20.16
2018-03-19T11:59:20.549Z,20.17
2018-03-19T12:01:46.717Z,20.18
2018-03-19T12:04:12.926Z,20.20
2018-03-19T12:06:39.116Z,20.21
2018-03-19T12:09:05.412Z,20.23
2018-03-19T12:11:31.697Z,20.25
2018-03-19T12:13:58.152Z,20.26
2018-03-19T12:16:24.349Z,20.26
2018-03-19T12:18:50.559Z,20.30
2018-03-19T12:21:16.743Z,20.31
2018-03-19T12:23:43.258Z,20.31
2018-03-19T12:26:09.482Z,20.35
2018-03-19T12:28:35.693Z,20.37
2018-03-19T12:31:01.958Z,20.39
2018-03-19T12:33:28.206Z,20.43
2018-03-19T12:35:54.387Z,20.46
2018-03-19T12:38:20.577Z,20.43
2018-03-19T12:40:46.782Z,20.44
2018-03-19T12:43:12.968Z,20.46
2018-03-19T12:45:39.224Z,20.49
2018-03-19T12:48:05.402Z,20.51
2018-03-19T12:50:31.651Z,20.54
2018-03-19T12:52:57.822Z,20.56
2018-03-19T12:55:23.993Z,20.59
2018-03-19T12:57:50.204Z,20.61
2018-03-19T13:00:16.410Z,20.63
2018-03-19T13:02:42.604Z,20.66
2018-03-19T13:05:08.833Z,20.68
2018-03-19T13:07:35.408Z,20.72
2018-03-19T13:10:01.596Z,20.73
2018-03-19T13:12:27.750Z,20.74
2018-03-19T13:14:53.924Z,20.79
2018-03-19T13:17:20.115Z,20.82
2018-03-19T13:19:46.608Z,20.83
2018-03-19T13:22:12.804Z,20.85
2018-03-19T13:24:39.407Z,20.91
2018-03-19T13:27:05.618Z,20.95
2018-03-19T13:29:31.831Z,20.98
2018-03-19T13:31:58.363Z,20.99
2018-03-19T13:34:24.543Z,21.02
2018-03-19T13:36:50.733Z,21.07
2018-03-19T13:39:16.905Z,21.10
2018-03-19T13:41:43.228Z,21.15
2018-03-19T13:44:09.418Z,21.18
2018-03-19T13:46:35.582Z,21.22
2018-03-19T13:49:01.797Z,21.27
2018-03-19T13:51:27.965Z,21.31
2018-03-19T13:53:54.154Z,21.35
2018-03-19T13:56:20.653Z,21.39
2018-03-19T13:58:46.843Z,21.41
2018-03-19T14:01:13.081Z,21.44
2018-03-19T14:03:39.249Z,21.47
2018-03-19T14:06:05.447Z,21.52
2018-03-19T14:08:31.603Z,21.57
2018-03-19T14:10:57.831Z,21.61
2018-03-19T14:13:24.011Z,21.65
2018-03-19T14:15:50.162Z,21.74
2018-03-19T14:18:16.380Z,21.97
2018-03-19T14:20:42.820Z,22.28
2018-03-19T14:23:08.960Z,22.74
2018-03-19T14:25:35.179Z,23.48
2018-03-19T14:28:01.365Z,24.45
2018-03-19T14:30:27.604Z,25.13
2018-03-19T14:32:53.782Z,25.59
2018-03-19T14:35:20.189Z,25.95
2018-03-19T14:37:46.450Z,26.23
2018-03-19T14:40:12.652Z,26.46
2018-03-19T14:42:39.085Z,26.67
2018-03-19T14:45:05.276Z,26.85
2018-03-19T14:47:31.471Z,27.02
2018-03-19T14:49:57.686Z,27.20
2018-03-19T14:52:23.872Z,27.35
2018-03-19T14:54:50.320Z,27.51
2018-03-19T14:57:16.492Z,27.64
2018-03-19T14:59:42.723Z,27.75
2018-03-19T15:02:08.919Z,27.89
2018-03-19T15:04:35.233Z,28.00
2018-03-19T15:07:01.400Z,28.08
2018-03-19T15:09:27.609Z,28.15
2018-03-19T15:11:53.776Z,28.27
2018-03-19T15:14:19.971Z,28.36
2018-03-19T15:16:46.485Z,28.39
2018-03-19T15:19:12.682Z,28.26
2018-03-19T15:21:38.950Z,28.18
2018-03-19T15:24:05.167Z,28.14
2018-03-19T15:26:31.344Z,28.14
2018-03-19T15:28:57.594Z,28.15
2018-03-19T15:31:24.065Z,28.10
2018-03-19T15:33:50.244Z,28.15
2018-03-19T15:36:16.442Z,28.14
2018-03-19T15:38:42.627Z,28.14
2018-03-19T15:41:08.842Z,28.14
2018-03-19T15:43:35.312Z,28.03
2018-03-19T15:46:07.655Z,27.96
2018-03-19T15:48:33.914Z,27.88
2018-03-19T15:51:00.099Z,27.74
2018-03-19T15:53:26.560Z,27.50
2018-03-19T15:55:52.741Z,27.17
2018-03-19T15:58:19.189Z,26.80
2018-03-19T16:00:45.421Z,26.45
2018-03-19T16:03:11.628Z,26.08
2018-03-19T16:05:37.809Z,25.68
2018-03-19T16:08:04.015Z,25.29
2018-03-19T16:10:30.172Z,24.97
2018-03-19T16:12:56.696Z,24.74
2018-03-19T16:15:22.861Z,24.58
2018-03-19T16:17:49.003Z,24.50
2018-03-19T16:20:15.186Z,24.40
2018-03-19T16:22:41.352Z,24.28
2018-03-19T16:25:07.524Z,24.20
2018-03-19T16:27:33.952Z,24.14
2018-03-19T16:30:00.345Z,24.07
2018-03-19T16:32:26.507Z,24.00
2018-03-19T16:34:52.706Z,23.95
2018-03-19T16:37:19.177Z,23.90
2018-03-19T16:39:45.325Z,23.82
2018-03-19T16:42:11.558Z,23.72
2018-03-19T16:44:37.719Z,23.58
2018-03-19T16:47:03.958Z,23.45
2018-03-19T16:49:30.137Z,23.37
2018-03-19T16:51:56.301Z,23.28
2018-03-19T16:54:22.505Z,23.16
2018-03-19T16:56:49.006Z,22.98
2018-03-19T16:59:15.217Z,22.79
2018-03-19T17:01:41.392Z,22.64
2018-03-19T17:04:14.489Z,22.54
2018-03-19T17:06:40.671Z,22.45
2018-03-19T17:09:06.900Z,22.41
2018-03-19T17:11:33.208Z,22.37
2018-03-19T17:13:59.412Z,22.29
2018-03-19T17:16:25.634Z,22.18
2018-03-19T17:18:51.871Z,22.05
2018-03-19T17:21:18.275Z,21.90
2018-03-19T17:23:44.461Z,21.75
2018-03-19T17:26:10.907Z,21.63
2018-03-19T17:28:37.117Z,21.48
2018-03-19T17:31:03.272Z,21.33
2018-03-19T17:33:29.447Z,21.20
2018-03-19T17:35:56.028Z,21.08
2018-03-19T17:38:22.238Z,20.95
2018-03-19T17:40:48.640Z,20.84
2018-03-19T17:43:14.854Z,20.76
2018-03-19T17:45:41.348Z,20.69
2018-03-19T17:48:07.590Z,20.63
2018-03-19T17:50:34.109Z,20.57
2018-03-19T17:53:00.542Z,20.49
2018-03-19T17:55:26.745Z,20.46
2018-03-19T17:57:53.199Z,20.41
2018-03-19T18:02:51.192Z,20.30
2018-03-19T18:05:17.616Z,20.23
2018-03-19T18:07:43.800Z,20.22
2018-03-19T18:10:09.971Z,20.16
2018-03-19T18:12:36.511Z,20.13
2018-03-19T18:15:02.677Z,20.08
2018-03-19T18:17:28.886Z,20.05
2018-03-19T18:19:55.085Z,20.02
2018-03-19T18:22:21.305Z,19.97
2018-03-19T18:24:47.463Z,19.94
2018-03-19T18:27:13.631Z,19.92
2018-03-19T18:29:39.856Z,19.89
2018-03-19T18:32:06.015Z,19.85
2018-03-19T18:34:32.241Z,19.80
2018-03-19T18:36:58.441Z,19.77
2018-03-19T18:39:24.630Z,19.74
2018-03-19T18:41:50.827Z,19.71
2018-03-19T18:44:17.112Z,19.66
2018-03-19T18:46:43.399Z,19.63
2018-03-19T18:49:09.847Z,19.62
2018-03-19T18:51:36.095Z,19.58
2018-03-19T18:54:02.280Z,19.56
2018-03-19T18:56:28.498Z,19.51
2018-03-19T18:58:54.943Z,19.50
2018-03-19T19:01:21.153Z,19.48
2018-03-19T19:03:47.609Z,19.47
2018-03-19T19:06:13.806Z,19.45
2018-03-19T19:08:39.970Z,19.45
2018-03-19T19:11:06.148Z,19.43
2018-03-19T19:13:32.345Z,19.45
2018-03-19T19:15:58.537Z,19.44
2018-03-19T19:18:24.733Z,19.44
2018-03-19T19:20:50.918Z,19.48
2018-03-19T19:23:17.439Z,19.46
2018-03-19T19:25:43.612Z,19.42
2018-03-19T19:28:09.825Z,19.41
2018-03-19T19:30:35.981Z,19.41
2018-03-19T19:33:02.194Z,19.41
2018-03-19T19:35:28.407Z,19.40
2018-03-19T19:37:54.593Z,19.40
2018-03-19T19:40:20.748Z,19.39
2018-03-19T19:42:46.955Z,19.38
2018-03-19T19:45:13.119Z,19.36
2018-03-19T19:47:39.398Z,19.35
2018-03-19T19:50:05.553Z,19.32
2018-03-19T19:52:32.070Z,19.32
2018-03-19T19:54:58.275Z,19.32
2018-03-19T19:57:24.467Z,19.31
2018-03-19T19:59:50.692Z,19.28
2018-03-19T20:02:16.931Z,19.21
2018-03-19T20:04:43.156Z,19.14
2018-03-19T20:07:09.752Z,19.09
2018-03-19T20:09:36.178Z,19.04
2018-03-19T20:12:02.508Z,19.03
2018-03-19T20:14:28.661Z,19.08
2018-03-19T20:16:54.867Z,19.08
2018-03-19T20:19:21.073Z,19.08
2018-03-19T20:21:47.298Z,19.05
2018-03-19T20:24:13.470Z,19.05
2018-03-19T20:26:39.635Z,19.05
2018-03-19T20:29:05.831Z,19.05
2018-03-19T20:31:31.998Z,19.08
2018-03-19T20:33:58.463Z,19.06
2018-03-19T20:36:24.629Z,19.03
2018-03-19T20:38:50.813Z,19.04
2018-03-19T20:41:16.986Z,19.04
2018-03-19T20:43:43.224Z,19.05
2018-03-19T20:46:09.501Z,19.06
2018-03-19T20:48:35.897Z,19.14
2018-03-19T20:51:02.090Z,19.12
2018-03-19T20:53:30.688Z,19.12
2018-03-19T20:55:57.004Z,19.13
2018-03-19T20:58:23.242Z,19.13
2018-03-19T21:00:49.412Z,19.13
2018-03-19T21:03:15.584Z,19.18
2018-03-19T21:05:41.784Z,19.18
2018-03-19T21:08:07.949Z,19.20
2018-03-19T21:10:34.349Z,19.22
2018-03-19T21:13:00.535Z,19.21
2018-03-19T21:15:26.945Z,19.21
2018-03-19T21:17:53.135Z,19.21
2018-03-19T21:20:19.315Z,19.16
2018-03-19T21:22:45.500Z,19.18
2018-03-19T21:25:11.707Z,19.23
2018-03-19T21:27:37.916Z,19.27
2018-03-19T21:30:04.138Z,19.30
2018-03-19T21:32:30.314Z,19.28
2018-03-19T21:34:56.476Z,19.24
2018-03-19T21:37:22.946Z,19.19
2018-03-19T21:39:49.129Z,19.22
2018-03-19T21:42:15.308Z,19.22
2018-03-19T21:47:13.377Z,19.23
2018-03-19T21:49:39.530Z,19.20
2018-03-19T21:52:06.053Z,19.15
2018-03-19T21:54:32.596Z,19.12
2018-03-19T21:56:59.127Z,19.11
2018-03-19T21:59:25.328Z,19.09
2018-03-19T22:01:51.488Z,19.06
2018-03-19T22:04:17.668Z,19.06
2018-03-19T22:06:43.831Z,19.07
2018-03-19T22:09:10.031Z,19.07
2018-03-19T22:11:36.496Z,19.07
2018-03-19T22:14:02.930Z,19.06
2018-03-19T22:16:29.186Z,19.05
2018-03-19T22:18:55.590Z,19.05
2018-03-19T22:21:21.735Z,19.02
2018-03-19T22:23:47.961Z,19.03
2018-03-19T22:26:14.123Z,19.02
2018-03-19T22:28:40.282Z,19.01
2018-03-19T22:31:06.468Z,19.01
2018-03-19T22:33:32.656Z,19.05
2018-03-19T22:35:58.833Z,19.07
2018-03-19T22:38:25.067Z,19.07
2018-03-19T22:40:51.235Z,19.09
2018-03-19T22:43:17.772Z,19.09
2018-03-19T22:45:43.993Z,19.13
2018-03-19T22:48:10.537Z,19.14
2018-03-19T22:50:36.789Z,19.14
2018-03-19T22:53:02.948Z,19.18
2018-03-19T22:55:29.115Z,19.18
2018-03-19T22:57:55.307Z,19.12
2018-03-19T23:00:21.565Z,19.09
2018-03-19T23:02:47.715Z,19.10
2018-03-19T23:05:22.289Z,19.11
2018-03-19T23:07:48.457Z,19.13
2018-03-19T23:10:14.985Z,19.11
2018-03-19T23:12:41.416Z,19.10
2018-03-19T23:15:07.564Z,19.13
2018-03-19T23:17:33.793Z,19.11
2018-03-19T23:19:59.979Z,19.16
2018-03-19T23:22:27.010Z,19.17
2018-03-19T23:24:53.202Z,19.20
2018-03-19T23:27:19.715Z,19.27
2018-03-19T23:29:46.240Z,19.26
2018-03-19T23:32:12.512Z,19.26
2018-03-19T23:34:38.722Z,19.25
2018-03-19T23:37:05.236Z,19.22
2018-03-19T23:39:31.430Z,19.21
2018-03-19T23:41:57.613Z,19.20
2018-03-19T23:44:23.842Z,19.23
2018-03-19T23:46:50.008Z,19.27
2018-03-19T23:49:16.212Z,19.25
2018-03-19T23:51:42.430Z,19.21
2018-03-19T23:54:08.684Z,19.19
2018-03-19T23:56:34.853Z,19.22
2018-03-19T23:59:01.075Z,19.21
